Newark, OH (43055)

1:54 PM EST on December 05, 2016 (GMT -0500)
COCT/OSU Newark | | Change Station

Elev 863 ft 40.06 °N, 82.45 °W | Updated 20 seconds ago

Overcast
Overcast
42.3 °F
Feels Like 42 °F
N
1.0
Wind Variable Wind from SW

Today
High -- | Low -- °F
--% Chance of Precip.
Yesterday
High -- | Low -- °F
Precip. -- in
Pressure 30.11 in
Visibility 10.0 miles
Clouds Overcast 2300 ft
Windchill 42 °F
Dew Point 33 °F
Humidity 70%
Rainfall 0.00 in
Snow Depth Not available.
7:36 AM 5:03 PM
Waxing Crescent, 34% visible
METAR KVTA 051754Z AUTO VRB04KT 10SM OVC023 04/M01 A3009 RMK AO2 SLP196 T00391011 10044 20022 58005
Pressure 30.11 in
Visibility 10.0 miles
Clouds Overcast 2300 ft
Windchill 42 °F
Dew Point 33 °F
Humidity 70%
Rainfall 0.00 in
Snow Depth Not available.
7:36 AM 5:03 PM
Waxing Crescent, 34% visible
METAR KVTA 051754Z AUTO VRB04KT 10SM OVC023 04/M01 A3009 RMK AO2 SLP196 T00391011 10044 20022 58005

10-Day Weather Forecast

Almanac

Astronomy

Dec. 05, 2016 Rise Set
Actual Time
Civil Twilight
Nautical Twilight
Astronomical Twilight
Moon
Length of Visible Light
Length of Day
Tomorrow will be .
, % of the Moon is Illuminated

Today's Extremes

State Highs State Lows

Community

WunderPhotos

Upload Photos

1,955,851 photos uploaded!

WunderBlog® & News

Nearby

Air Quality

  Air Quality AQ Index Pollutant
Not available.

Snow Depth

Station Depth Elevation

Earthquake Activity

City Distance Mag. Time & Date
Minimum magnitude displayed is 2.5.

Coastal Water Temperatures

Place Temperature

Stations

Nearby Weather Stations

Station Location Temp. Windchill Dew Point Humidity Wind Precip. Elev Updated Type
                   

Watches & Warnings

There are currently no watches in effect.